Time;durP1;ratioP1;P1;durP2;ratioP2;P2;SDS_P1;SDS_P2;PMS_P1;PMS_P2;Temp;Humidity;BMP_temperature;BMP_pressure;BME280_temperature;BME280_humidity;BME280_pressure;Samples;Min_cycle;Max_cycle;Signal;HPM_P1;HPM_P2
2021/12/18 00:02:02;;;;;;;;;29.25;27.75;5.80;78.80;;;;;;5054184;28;8771;-63
2021/12/18 00:04:28;;;;;;;;;36.25;36.25;5.70;80.10;;;;;;5054142;28;9200;-63
2021/12/18 00:06:55;;;;;;;;;32.50;32.25;5.80;79.50;;;;;;5053986;28;8818;-63
2021/12/18 00:09:21;;;;;;;;;36.75;36.75;5.80;79.40;;;;;;5053856;28;8774;-64
2021/12/18 00:11:48;;;;;;;;;35.75;35.25;5.50;81.60;;;;;;5054111;28;8786;-63
2021/12/18 00:14:15;;;;;;;;;37.50;36.50;5.40;82.50;;;;;;5054014;28;8767;-63
2021/12/18 00:16:41;;;;;;;;;30.00;30.00;5.40;82.50;;;;;;5053939;28;8803;-65
2021/12/18 00:19:07;;;;;;;;;34.25;34.25;5.50;81.50;;;;;;5054122;28;8830;-63
2021/12/18 00:21:36;;;;;;;;;26.75;26.75;5.50;82.20;;;;;;5054617;28;8873;-63
2021/12/18 00:24:04;;;;;;;;;33.50;33.50;5.80;80.60;;;;;;5057679;28;8881;-63
2021/12/18 00:26:30;;;;;;;;;32.00;32.00;5.80;78.90;;;;;;5057929;28;8771;-63
2021/12/18 00:28:55;;;;;;;;;27.50;27.50;5.70;79.50;;;;;;5057443;28;8775;-63
2021/12/18 00:31:21;;;;;;;;;33.75;33.00;5.50;81.90;;;;;;5057026;28;8794;-63
2021/12/18 00:33:47;;;;;;;;;34.75;32.25;5.50;81.10;;;;;;5058099;28;8783;-64
2021/12/18 00:36:13;;;;;;;;;33.75;31.75;5.70;80.70;;;;;;5057709;28;8818;-63
2021/12/18 00:38:40;;;;;;;;;30.00;30.00;5.60;80.60;;;;;;5057732;28;8795;-64
2021/12/18 00:43:38;;;;;;;;;39.00;37.50;6.10;78.00;;;;;;5057642;28;8756;-63
2021/12/18 00:46:04;;;;;;;;;35.00;35.00;5.90;79.10;;;;;;5057666;28;8878;-63
2021/12/18 00:48:30;;;;;;;;;31.25;30.50;6.40;76.60;;;;;;5056450;28;9508;-63
2021/12/18 00:50:57;;;;;;;;;38.00;37.50;6.80;74.40;;;;;;5057528;28;8751;-62
2021/12/18 00:53:23;;;;;;;;;33.25;33.25;7.10;72.40;;;;;;5057760;28;8763;-63
2021/12/18 00:55:51;;;;;;;;;32.25;32.00;7.40;70.70;;;;;;5057640;28;8819;-63
2021/12/18 00:58:17;;;;;;;;;34.75;34.75;7.00;71.40;;;;;;5057652;28;8779;-62
2021/12/18 01:00:43;;;;;;;;;36.75;36.00;6.60;73.00;;;;;;5057363;28;9500;-62
2021/12/18 01:03:17;;;;;;;;;36.50;36.50;6.90;72.20;;;;;;5057278;28;8771;-63
2021/12/18 01:05:45;;;;;;;;;35.00;34.75;6.40;74.80;;;;;;5057527;28;8759;-63
2021/12/18 01:08:11;;;;;;;;;32.25;32.25;6.00;76.50;;;;;;5057037;28;8807;-62
2021/12/18 01:13:13;;;;;;;;;27.00;27.00;6.10;78.00;;;;;;5057311;28;8767;-62
2021/12/18 01:15:48;;;;;;;;;32.50;32.50;6.00;77.80;;;;;;5056892;28;8936;-63
2021/12/18 01:23:43;;;;;;;;;36.50;36.50;5.80;79.10;;;;;;5056837;28;8739;-63
2021/12/18 01:26:09;;;;;;;;;31.75;31.75;5.60;81.10;;;;;;5056852;28;9475;-62
2021/12/18 01:28:35;;;;;;;;;34.75;34.50;6.00;79.10;;;;;;5057112;28;8844;-64
2021/12/18 01:31:02;;;;;;;;;36.25;36.25;6.20;77.40;;;;;;5056971;28;9445;-64
2021/12/18 01:33:28;;;;;;;;;31.75;31.75;5.90;78.50;;;;;;5056481;28;8854;-64
2021/12/18 01:35:54;;;;;;;;;31.25;30.25;5.70;80.80;;;;;;5056651;28;8813;-64
2021/12/18 01:38:23;;;;;;;;;37.25;37.25;6.20;78.60;;;;;;5056847;28;8748;-64
2021/12/18 01:40:51;;;;;;;;;29.00;29.00;6.10;77.40;;;;;;5056578;28;9514;-64
2021/12/18 01:46:14;;;;;;;;;35.25;35.25;5.60;81.30;;;;;;5056535;28;8870;-64
2021/12/18 01:54:08;;;;;;;;;34.00;34.00;5.60;82.50;;;;;;5056441;28;9393;-63
2021/12/18 01:56:34;;;;;;;;;33.50;33.50;5.80;80.50;;;;;;5056454;28;8822;-64
2021/12/18 01:59:00;;;;;;;;;35.00;33.75;6.70;76.20;;;;;;5056421;28;8783;-64
2021/12/18 02:01:27;;;;;;;;;40.25;38.75;6.80;74.00;;;;;;5056152;28;8775;-64
2021/12/18 02:03:53;;;;;;;;;36.50;36.50;6.90;74.00;;;;;;5056413;28;8878;-63
2021/12/18 02:06:20;;;;;;;;;39.75;38.25;6.60;74.50;;;;;;5055799;28;8956;-64
2021/12/18 02:08:46;;;;;;;;;38.75;37.75;6.30;76.40;;;;;;5055979;28;8763;-64
2021/12/18 02:21:45;;;;;;;;;34.50;34.50;5.40;82.40;;;;;;5056006;28;8747;-63
2021/12/18 02:24:11;;;;;;;;;32.00;31.00;5.90;79.80;;;;;;5056070;28;9462;-63
2021/12/18 02:26:37;;;;;;;;;36.00;36.00;5.90;79.20;;;;;;5055972;28;8802;-63
2021/12/18 02:29:05;;;;;;;;;32.00;32.00;6.00;78.60;;;;;;5055975;28;9482;-63
2021/12/18 02:31:31;;;;;;;;;27.75;26.75;5.80;79.40;;;;;;5055899;28;8763;-63
2021/12/18 02:33:58;;;;;;;;;32.00;32.00;5.90;78.40;;;;;;5055826;28;8879;-63
2021/12/18 02:36:25;;;;;;;;;38.25;34.00;5.70;79.10;;;;;;5055402;28;8837;-63
2021/12/18 02:43:51;;;;;;;;;25.00;25.00;5.40;82.20;;;;;;5054925;28;8728;-63
2021/12/18 02:46:19;;;;;;;;;32.50;32.00;5.40;82.60;;;;;;5055108;28;8797;-63
2021/12/18 02:48:47;;;;;;;;;29.75;29.75;5.30;82.60;;;;;;5055531;28;9426;-63
2021/12/18 02:51:15;;;;;;;;;26.75;26.75;5.20;84.00;;;;;;5055488;28;8840;-63
2021/12/18 02:53:49;;;;;;;;;31.25;31.25;5.40;82.50;;;;;;5055247;28;8779;-64
2021/12/18 02:56:22;;;;;;;;;18.00;18.00;5.60;81.20;;;;;;5055141;28;8929;-63
2021/12/18 02:58:51;;;;;;;;;27.75;27.75;5.20;83.30;;;;;;5055180;28;8771;-64
2021/12/18 03:01:23;;;;;;;;;27.75;27.75;5.40;81.70;;;;;;5054102;28;9752;-63
2021/12/18 03:03:50;;;;;;;;;21.75;21.75;5.20;82.50;;;;;;5055154;28;8944;-62
2021/12/18 03:27:17;;;;;;;;;28.25;28.25;5.40;81.20;;;;;;5055003;28;8767;-64
2021/12/18 03:29:43;;;;;;;;;32.50;32.50;5.40;81.50;;;;;;5054533;28;8775;-63
2021/12/18 03:32:09;;;;;;;;;31.25;31.25;5.40;80.50;;;;;;5054533;28;8791;-62
2021/12/18 03:34:35;;;;;;;;;30.00;30.00;5.50;80.70;;;;;;5054432;28;8807;-63
2021/12/18 03:37:02;;;;;;;;;24.25;24.25;5.60;78.70;;;;;;5054816;28;8771;-63
2021/12/18 03:39:28;;;;;;;;;29.00;28.50;5.60;78.60;;;;;;5054665;28;8758;-62
2021/12/18 03:41:53;;;;;;;;;29.75;29.25;5.60;79.00;;;;;;5054438;28;8787;-62
2021/12/18 03:44:20;;;;;;;;;25.25;25.25;5.30;81.60;;;;;;5054353;28;8871;-64
2021/12/18 03:46:45;;;;;;;;;31.50;31.50;5.50;80.10;;;;;;5054773;28;8771;-64
2021/12/18 03:49:11;;;;;;;;;28.00;28.00;5.90;78.10;;;;;;5054478;28;9544;-65
2021/12/18 03:51:37;;;;;;;;;29.00;29.00;6.40;73.40;;;;;;5054611;28;8785;-64
2021/12/18 03:54:04;;;;;;;;;32.75;31.75;6.20;73.90;;;;;;5054327;28;8844;-63
2021/12/18 03:56:30;;;;;;;;;29.25;29.25;6.40;72.10;;;;;;5053976;28;8828;-64
2021/12/18 03:58:56;;;;;;;;;31.25;31.25;6.00;74.80;;;;;;5054227;28;8759;-64
2021/12/18 04:01:22;;;;;;;;;32.00;32.00;5.50;77.70;;;;;;5054207;28;8771;-63
2021/12/18 04:03:48;;;;;;;;;34.75;34.75;5.10;80.90;;;;;;5054263;28;8836;-62
2021/12/18 04:06:14;;;;;;;;;34.00;34.00;5.30;80.40;;;;;;5054032;28;8877;-62
2021/12/18 04:08:40;;;;;;;;;24.00;24.00;5.40;78.50;;;;;;5054408;28;9550;-63
2021/12/18 04:11:06;;;;;;;;;28.25;28.25;5.40;79.60;;;;;;5054109;28;8782;-61
2021/12/18 04:13:32;;;;;;;;;32.75;31.25;5.30;80.00;;;;;;5054382;28;8763;-62
2021/12/18 04:15:58;;;;;;;;;28.25;28.25;5.20;80.70;;;;;;5054060;28;8799;-62
2021/12/18 04:18:24;;;;;;;;;26.75;26.75;5.40;78.70;;;;;;5054229;28;8770;-63
2021/12/18 04:20:50;;;;;;;;;27.50;26.25;5.30;79.40;;;;;;5054124;28;8806;-62
2021/12/18 04:23:16;;;;;;;;;30.25;30.25;5.50;78.40;;;;;;5054105;28;8760;-62
2021/12/18 04:25:42;;;;;;;;;28.50;28.50;5.50;78.80;;;;;;5054277;28;8980;-62
2021/12/18 04:28:08;;;;;;;;;31.75;31.75;5.40;79.70;;;;;;5054226;28;9468;-62
2021/12/18 04:30:35;;;;;;;;;33.75;33.75;5.30;79.90;;;;;;5054158;28;8860;-62
2021/12/18 04:33:00;;;;;;;;;28.00;28.00;5.30;80.90;;;;;;5054046;28;8782;-62
2021/12/18 04:35:27;;;;;;;;;7.00;7.00;5.30;80.20;;;;;;5053907;28;8810;-62
2021/12/18 04:37:53;;;;;;;;;31.00;31.00;5.20;81.00;;;;;;5053890;28;8787;-62
2021/12/18 04:40:25;;;;;;;;;32.25;31.50;5.20;81.40;;;;;;5053834;28;8856;-62
2021/12/18 04:42:51;;;;;;;;;29.00;29.00;5.10;81.90;;;;;;5053971;28;8779;-62
2021/12/18 04:45:17;;;;;;;;;34.25;34.25;4.90;82.70;;;;;;5054029;28;8795;-62
2021/12/18 04:47:43;;;;;;;;;35.00;35.00;5.00;82.80;;;;;;5054031;28;9453;-62
2021/12/18 04:50:09;;;;;;;;;32.50;32.50;5.20;80.40;;;;;;5053682;28;8847;-62
2021/12/18 04:52:35;;;;;;;;;37.50;37.00;5.30;80.00;;;;;;5053787;28;8844;-62
2021/12/18 04:55:01;;;;;;;;;43.00;38.00;5.80;76.30;;;;;;5053635;28;8799;-62
2021/12/18 04:57:26;;;;;;;;;31.75;31.75;5.40;79.00;;;;;;5053477;28;8852;-62
2021/12/18 04:59:53;;;;;;;;;36.25;36.25;5.40;78.50;;;;;;5053626;28;8759;-62
2021/12/18 05:02:22;;;;;;;;;34.75;34.75;5.70;77.80;;;;;;5053875;28;9246;-62
2021/12/18 05:04:48;;;;;;;;;77.75;63.50;5.90;75.10;;;;;;5053543;28;8798;-62
2021/12/18 05:07:14;;;;;;;;;80.00;61.75;5.70;75.40;;;;;;5053684;28;8791;-62
2021/12/18 05:09:41;;;;;;;;;68.75;57.25;5.90;75.70;;;;;;5057158;28;8779;-62
2021/12/18 05:12:08;;;;;;;;;61.00;52.25;6.00;73.70;;;;;;5057189;28;8759;-62
2021/12/18 05:14:34;;;;;;;;;53.00;45.75;6.30;72.60;;;;;;5057105;28;8823;-62
2021/12/18 05:17:00;;;;;;;;;38.50;36.25;6.40;72.40;;;;;;5057156;28;8787;-62
2021/12/18 05:19:26;;;;;;;;;33.50;32.75;6.60;71.30;;;;;;5057310;28;8807;-62
2021/12/18 05:21:52;;;;;;;;;29.00;29.00;6.70;70.10;;;;;;5057068;28;8750;-62
2021/12/18 05:24:18;;;;;;;;;31.75;30.75;6.50;71.50;;;;;;5056883;28;8759;-62
2021/12/18 05:26:43;;;;;;;;;19.50;19.50;6.50;70.10;;;;;;5057107;28;8802;-62
2021/12/18 05:29:09;;;;;;;;;23.00;23.00;6.10;71.70;;;;;;5056837;28;8771;-62
2021/12/18 05:31:35;;;;;;;;;23.75;23.75;5.40;75.80;;;;;;5056982;28;8755;-62
2021/12/18 05:34:04;;;;;;;;;29.50;28.50;5.00;80.00;;;;;;5056758;28;8785;-62
2021/12/18 05:38:58;;;;;;;;;19.75;19.00;5.00;80.10;;;;;;5056743;28;8735;-62
2021/12/18 05:41:24;;;;;;;;;10.00;10.00;4.90;80.70;;;;;;5056943;28;8775;-63
2021/12/18 05:43:49;;;;;;;;;32.50;27.00;4.60;82.40;;;;;;5056600;28;8804;-62
2021/12/18 05:46:15;;;;;;;;;29.25;28.00;4.50;84.70;;;;;;5055346;28;8783;-63
2021/12/18 05:48:41;;;;;;;;;20.50;20.50;4.70;82.80;;;;;;5056449;28;8810;-63
2021/12/18 05:51:07;;;;;;;;;25.25;24.25;4.70;82.40;;;;;;5056449;28;8890;-64
2021/12/18 05:53:33;;;;;;;;;23.50;23.50;4.90;81.90;;;;;;5056413;28;8775;-62
2021/12/18 05:55:58;;;;;;;;;25.75;25.75;4.80;81.40;;;;;;5056323;28;8830;-62
2021/12/18 05:58:24;;;;;;;;;26.50;26.50;4.90;81.40;;;;;;5056233;28;8767;-63
2021/12/18 06:00:50;;;;;;;;;28.25;28.25;4.90;81.20;;;;;;5056257;28;8775;-63
2021/12/18 06:03:16;;;;;;;;;22.75;22.75;4.80;82.10;;;;;;5071315;28;8768;-63
2021/12/18 06:05:42;;;;;;;;;29.50;28.25;4.80;82.60;;;;;;5070029;28;8811;-63
2021/12/18 06:08:11;;;;;;;;;29.75;29.75;5.20;80.10;;;;;;5075979;28;8910;-62
2021/12/18 06:10:38;;;;;;;;;19.00;19.00;5.20;78.90;;;;;;5060639;28;8819;-63
2021/12/18 06:13:04;;;;;;;;;24.50;17.25;5.20;79.30;;;;;;5055809;28;8848;-62
2021/12/18 06:15:31;;;;;;;;;24.50;24.00;4.90;81.00;;;;;;5056112;28;8937;-62
2021/12/18 06:17:58;;;;;;;;;26.00;26.00;4.70;82.60;;;;;;5055946;28;8766;-63
2021/12/18 06:20:24;;;;;;;;;30.00;29.00;4.40;85.60;;;;;;5056208;28;8802;-62
2021/12/18 06:22:52;;;;;;;;;22.75;22.75;4.50;84.70;;;;;;5055747;28;8767;-62
2021/12/18 06:25:17;;;;;;;;;25.00;25.00;4.40;85.30;;;;;;5056255;28;8866;-63
2021/12/18 06:27:44;;;;;;;;;26.00;23.25;4.40;85.80;;;;;;5056003;28;9552;-62
2021/12/18 06:30:10;;;;;;;;;27.25;27.25;4.50;84.50;;;;;;5056105;28;8876;-63
2021/12/18 06:32:37;;;;;;;;;34.50;34.50;4.50;85.60;;;;;;5075573;28;8775;-63
2021/12/18 06:35:04;;;;;;;;;26.75;26.50;5.20;80.80;;;;;;5075117;28;8972;-63
2021/12/18 06:37:29;;;;;;;;;30.50;30.50;5.30;77.60;;;;;;5075475;28;8765;-62
2021/12/18 06:39:55;;;;;;;;;35.75;34.25;5.20;79.00;;;;;;5075052;28;9457;-63
2021/12/18 06:42:21;;;;;;;;;31.00;31.00;5.10;79.60;;;;;;5075211;28;8776;-62
2021/12/18 06:44:47;;;;;;;;;32.25;32.25;5.20;79.50;;;;;;5075336;28;8792;-62
2021/12/18 06:47:12;;;;;;;;;41.00;39.50;5.70;75.60;;;;;;5075564;28;8798;-63
2021/12/18 06:49:38;;;;;;;;;38.25;38.25;5.60;76.00;;;;;;5075536;28;9008;-63
2021/12/18 06:52:04;;;;;;;;;35.75;35.75;5.30;76.80;;;;;;5075461;28;8773;-63
2021/12/18 06:54:30;;;;;;;;;33.25;33.25;5.30;77.40;;;;;;5075331;28;8780;-62
2021/12/18 06:56:56;;;;;;;;;36.00;34.25;4.90;79.80;;;;;;5075127;28;8808;-62
2021/12/18 06:59:22;;;;;;;;;40.50;39.50;4.70;81.30;;;;;;5075212;28;8761;-62
2021/12/18 07:01:50;;;;;;;;;33.00;33.00;4.60;82.20;;;;;;5075224;28;8883;-62
2021/12/18 07:04:16;;;;;;;;;25.25;25.25;4.70;82.10;;;;;;5075081;28;8833;-62
2021/12/18 07:06:41;;;;;;;;;29.25;29.25;4.80;80.70;;;;;;5074863;28;8796;-62
2021/12/18 07:09:07;;;;;;;;;32.25;32.25;5.00;79.40;;;;;;5074992;28;8757;-62
2021/12/18 07:11:33;;;;;;;;;32.50;32.50;4.90;79.90;;;;;;5074702;28;8764;-62
2021/12/18 07:13:59;;;;;;;;;36.50;36.50;5.00;79.70;;;;;;5074758;28;8819;-62
2021/12/18 07:16:24;;;;;;;;;22.00;22.00;5.10;78.90;;;;;;5074690;28;8957;-62
2021/12/18 07:18:51;;;;;;;;;33.75;33.75;5.20;78.30;;;;;;5074733;28;8824;-62
2021/12/18 07:21:17;;;;;;;;;18.50;18.50;5.20;78.00;;;;;;5074951;28;9567;-63
2021/12/18 07:23:43;;;;;;;;;30.00;29.50;4.70;81.50;;;;;;5074746;28;8784;-62
2021/12/18 07:26:09;;;;;;;;;23.50;23.50;4.70;81.60;;;;;;5073568;28;8804;-62
2021/12/18 07:28:35;;;;;;;;;31.75;31.00;4.30;85.20;;;;;;5064973;28;8795;-62
2021/12/18 07:31:00;;;;;;;;;28.50;28.50;4.40;85.30;;;;;;5053981;28;8771;-62
2021/12/18 07:33:26;;;;;;;;;32.50;32.50;4.40;85.50;;;;;;5054525;28;8778;-63
2021/12/18 07:35:52;;;;;;;;;29.50;29.50;4.40;85.50;;;;;;5054621;28;8822;-61
2021/12/18 07:38:18;;;;;;;;;22.00;18.50;4.40;85.50;;;;;;5055571;28;9469;-62
2021/12/18 07:40:43;;;;;;;;;32.25;32.25;4.40;84.60;;;;;;5069897;28;8777;-61
2021/12/18 07:43:09;;;;;;;;;26.75;26.25;4.40;85.20;;;;;;5063987;28;8781;-62
2021/12/18 07:45:35;;;;;;;;;29.25;29.25;4.40;85.20;;;;;;5063932;28;8791;-62
2021/12/18 07:48:02;;;;;;;;;30.50;29.25;4.50;85.20;;;;;;5054638;28;8755;-63
2021/12/18 07:50:28;;;;;;;;;32.00;30.50;4.60;84.10;;;;;;5054684;28;9486;-66
2021/12/18 07:52:54;;;;;;;;;34.00;33.25;4.70;83.20;;;;;;5054114;28;8774;-65
2021/12/18 07:55:20;;;;;;;;;25.25;24.00;4.60;83.00;;;;;;5054228;28;8795;-65
2021/12/18 07:57:46;;;;;;;;;34.75;33.50;4.40;85.60;;;;;;5054267;28;8747;-65
2021/12/18 08:00:14;;;;;;;;;35.00;34.25;4.60;84.60;;;;;;5056789;28;8795;-65
2021/12/18 08:02:40;;;;;;;;;28.50;28.50;4.80;82.90;;;;;;5064011;28;8891;-63
2021/12/18 08:05:07;;;;;;;;;34.25;34.25;4.90;81.80;;;;;;5066142;28;8801;-70
2021/12/18 08:07:33;;;;;;;;;41.25;40.00;4.90;81.70;;;;;;5068252;28;8796;-64
2021/12/18 08:09:59;;;;;;;;;37.75;36.50;4.60;84.10;;;;;;5056796;28;8880;-63
2021/12/18 08:12:25;;;;;;;;;35.75;34.25;5.00;83.20;;;;;;5072356;28;8772;-64
2021/12/18 08:14:51;;;;;;;;;44.00;42.00;5.10;80.30;;;;;;5063849;28;8802;-63
2021/12/18 08:17:18;;;;;;;;;36.75;36.25;5.00;82.40;;;;;;5061459;28;8768;-63
2021/12/18 08:19:44;;;;;;;;;31.00;31.00;5.30;79.90;;;;;;5058111;28;8818;-63
2021/12/18 08:22:10;;;;;;;;;37.50;37.50;5.40;78.30;;;;;;5053797;28;8802;-63
2021/12/18 08:24:35;;;;;;;;;50.00;44.75;5.60;77.70;;;;;;5063501;28;8799;-63
2021/12/18 08:27:02;;;;;;;;;58.75;50.50;6.00;74.80;;;;;;5066303;28;8784;-62
2021/12/18 08:29:27;;;;;;;;;72.50;58.50;5.90;75.00;;;;;;5061763;28;8799;-63
2021/12/18 08:31:53;;;;;;;;;71.75;60.00;6.00;74.40;;;;;;5063856;28;8773;-63
2021/12/18 08:34:20;;;;;;;;;76.00;63.00;6.20;74.00;;;;;;5062979;28;8800;-65
2021/12/18 08:36:46;;;;;;;;;89.50;69.75;6.60;72.30;;;;;;5063179;28;8968;-63
2021/12/18 08:39:12;;;;;;;;;89.75;74.75;6.60;71.60;;;;;;5066940;28;8879;-67
2021/12/18 08:41:39;;;;;;;;;94.25;83.50;6.80;70.80;;;;;;5061242;28;8773;-67
2021/12/18 08:44:05;;;;;;;;;102.00;85.75;6.90;71.20;;;;;;5074867;28;8803;-66
2021/12/18 08:46:31;;;;;;;;;98.50;91.25;6.90;70.90;;;;;;5066903;28;8926;-63
2021/12/18 08:48:57;;;;;;;;;72.00;60.50;6.90;71.30;;;;;;5068231;28;8933;-68
2021/12/18 08:51:23;;;;;;;;;73.50;60.50;6.20;73.70;;;;;;5066491;28;8788;-69
2021/12/18 08:53:48;;;;;;;;;81.00;66.75;6.00;76.60;;;;;;5065792;28;8780;-66
2021/12/18 08:56:14;;;;;;;;;71.00;59.00;5.70;79.00;;;;;;5062722;28;8790;-66
2021/12/18 08:58:40;;;;;;;;;67.00;55.50;5.80;79.30;;;;;;5067217;28;8772;-66
2021/12/18 09:01:06;;;;;;;;;56.50;47.50;6.00;79.10;;;;;;5067612;28;8763;-66
2021/12/18 09:03:32;;;;;;;;;67.50;57.00;6.60;74.70;;;;;;5064157;28;8801;-66
2021/12/18 09:05:57;;;;;;;;;55.75;48.75;6.80;72.90;;;;;;5065686;28;9444;-66
2021/12/18 09:08:23;;;;;;;;;57.25;48.75;7.20;70.40;;;;;;5068772;28;8830;-65
2021/12/18 09:10:50;;;;;;;;;57.75;49.00;7.70;67.50;;;;;;5077134;28;8784;-66
2021/12/18 09:13:16;;;;;;;;;58.50;49.50;7.60;66.30;;;;;;5069085;28;8871;-65
2021/12/18 09:15:42;;;;;;;;;58.75;50.75;7.10;67.50;;;;;;5059355;28;8907;-66
2021/12/18 09:18:08;;;;;;;;;61.50;53.00;7.30;68.10;;;;;;5073372;28;8772;-66
2021/12/18 09:20:34;;;;;;;;;68.00;57.00;7.30;67.00;;;;;;5076994;28;8792;-66
2021/12/18 09:23:01;;;;;;;;;65.00;56.00;7.40;67.10;;;;;;5076430;28;8789;-66
2021/12/18 09:25:28;;;;;;;;;55.00;47.75;7.80;65.00;;;;;;5076919;28;8764;-63
2021/12/18 09:27:57;;;;;;;;;53.75;47.00;7.70;63.60;;;;;;5076868;28;8760;-68
2021/12/18 09:30:24;;;;;;;;;58.50;48.00;7.60;65.10;;;;;;5062618;28;8898;-64
2021/12/18 09:32:50;;;;;;;;;61.00;51.00;8.00;64.40;;;;;;5056685;28;8813;-61
2021/12/18 09:35:16;;;;;;;;;49.75;43.25;8.00;63.70;;;;;;5062028;28;8792;-63
2021/12/18 09:37:43;;;;;;;;;47.50;43.00;8.30;63.10;;;;;;5068013;28;8787;-61
2021/12/18 09:40:11;;;;;;;;;53.25;46.00;8.20;62.60;;;;;;5063680;28;9499;-62
2021/12/18 09:42:38;;;;;;;;;58.50;50.50;8.10;63.50;;;;;;5064980;28;8776;-63
2021/12/18 09:45:05;;;;;;;;;59.75;49.75;8.20;63.40;;;;;;5065801;28;9418;-61
2021/12/18 09:47:31;;;;;;;;;58.00;50.00;8.20;62.30;;;;;;5067239;28;8870;-61
2021/12/18 09:49:58;;;;;;;;;66.00;55.00;8.40;62.70;;;;;;5069381;28;8792;-64
2021/12/18 09:52:25;;;;;;;;;67.25;55.75;8.70;61.50;;;;;;5070780;28;8834;-62
2021/12/18 09:54:59;;;;;;;;;68.75;55.00;8.50;61.70;;;;;;5068332;28;8778;-64
2021/12/18 09:57:26;;;;;;;;;40.00;36.00;8.90;61.00;;;;;;5067245;28;8755;-63
2021/12/18 09:59:52;;;;;;;;;55.25;48.00;8.30;62.50;;;;;;5064604;28;8795;-64
2021/12/18 10:02:18;;;;;;;;;59.00;50.00;8.50;61.90;;;;;;5065385;28;8767;-63
2021/12/18 10:04:44;;;;;;;;;62.50;53.00;8.60;61.90;;;;;;5057262;28;8788;-64
2021/12/18 10:07:15;;;;;;;;;44.50;41.25;8.50;61.20;;;;;;5064129;28;8824;-63
2021/12/18 10:09:41;;;;;;;;;58.00;51.00;8.40;62.20;;;;;;5062588;28;8786;-64
2021/12/18 10:12:27;;;;;;;;;57.00;49.00;8.10;62.30;;;;;;5067979;28;9465;-64
2021/12/18 10:15:01;;;;;;;;;49.75;43.75;8.20;62.70;;;;;;5054811;28;8786;-64
2021/12/18 10:17:35;;;;;;;;;52.25;46.00;8.10;63.10;;;;;;5073449;28;8764;-63
2021/12/18 10:20:10;;;;;;;;;43.00;40.25;8.20;62.60;;;;;;5055648;28;8825;-65
2021/12/18 10:22:57;;;;;;;;;34.50;34.50;7.50;63.80;;;;;;5055367;28;8893;-65
2021/12/18 10:25:37;;;;;;;;;33.75;33.75;7.40;65.10;;;;;;5068251;28;8879;-64
2021/12/18 10:28:11;;;;;;;;;29.00;29.00;7.50;64.80;;;;;;5075670;28;8774;-64
2021/12/18 10:30:53;;;;;;;;;30.25;30.25;7.20;64.70;;;;;;5075795;28;8784;-64
2021/12/18 10:33:25;;;;;;;;;36.75;36.00;7.20;65.30;;;;;;5070466;28;8784;-65
2021/12/18 10:35:56;;;;;;;;;27.00;26.75;7.50;64.70;;;;;;5066669;28;8806;-62
2021/12/18 10:38:50;;;;;;;;;28.75;28.75;7.50;63.90;;;;;;5062450;28;8775;-63
2021/12/18 10:41:27;;;;;;;;;30.25;30.25;7.40;63.90;;;;;;5063846;28;8876;-65
2021/12/18 10:44:03;;;;;;;;;37.25;35.75;7.70;63.30;;;;;;5066631;28;8791;-64
2021/12/18 10:46:32;;;;;;;;;36.50;36.25;7.60;62.40;;;;;;5063381;28;9486;-63
2021/12/18 10:49:07;;;;;;;;;35.00;35.00;7.70;63.50;;;;;;5061015;28;8800;-64
2021/12/18 10:51:35;;;;;;;;;41.50;38.75;8.20;62.40;;;;;;5063741;28;8763;-64
2021/12/18 10:54:07;;;;;;;;;45.75;40.75;8.40;61.00;;;;;;5055227;28;8782;-63
2021/12/18 10:56:34;;;;;;;;;54.25;47.00;8.50;60.70;;;;;;5055035;28;8801;-64
2021/12/18 10:59:03;;;;;;;;;60.75;52.50;8.70;59.90;;;;;;5065589;28;8772;-62
2021/12/18 11:01:29;;;;;;;;;72.00;59.25;9.20;58.20;;;;;;5067464;28;8824;-65
2021/12/18 11:03:55;;;;;;;;;65.25;54.50;9.50;57.50;;;;;;5068859;28;8864;-66
2021/12/18 11:06:29;;;;;;;;;71.75;60.50;9.00;58.20;;;;;;5061232;28;8805;-67
2021/12/18 11:08:57;;;;;;;;;75.00;61.50;8.80;58.30;;;;;;5074728;28;8748;-65
2021/12/18 11:14:09;;;;;;;;;39.00;38.00;7.80;60.70;;;;;;5075181;28;8761;-65
2021/12/18 11:16:37;;;;;;;;;45.00;41.50;7.90;58.70;;;;;;5074814;28;8804;-71
2021/12/18 11:19:11;;;;;;;;;50.00;43.25;8.30;58.30;;;;;;5075096;28;9502;-64
2021/12/18 11:21:38;;;;;;;;;29.00;29.00;7.80;59.10;;;;;;5074692;28;8776;-65
2021/12/18 11:24:07;;;;;;;;;45.75;41.50;7.50;60.30;;;;;;5074815;28;9442;-65
2021/12/18 11:26:42;;;;;;;;;37.50;36.50;7.70;59.90;;;;;;5074845;28;8772;-65
2021/12/18 11:29:32;;;;;;;;;28.00;28.00;7.70;61.20;;;;;;5069134;28;8875;-65
2021/12/18 11:31:59;;;;;;;;;24.50;24.50;7.70;59.70;;;;;;5068760;28;8792;-63
2021/12/18 11:34:25;;;;;;;;;22.00;22.00;7.50;59.40;;;;;;5074548;28;8753;-63
2021/12/18 11:36:52;;;;;;;;;32.50;31.50;7.20;59.90;;;;;;5074159;28;8793;-64
2021/12/18 11:39:24;;;;;;;;;44.00;41.50;7.50;60.30;;;;;;5074717;28;9454;-64
2021/12/18 11:41:52;;;;;;;;;42.75;40.00;7.70;59.30;;;;;;5074709;28;9496;-65
2021/12/18 11:44:29;;;;;;;;;42.75;40.25;7.70;60.10;;;;;;5074778;28;8769;-64
2021/12/18 11:46:57;;;;;;;;;44.25;41.25;7.60;60.50;;;;;;5074747;28;8779;-64
2021/12/18 11:49:26;;;;;;;;;40.25;38.50;7.20;61.90;;;;;;5074611;28;9583;-65
2021/12/18 11:52:05;;;;;;;;;49.50;43.00;7.40;61.30;;;;;;5074436;28;8764;-65
2021/12/18 11:54:50;;;;;;;;;57.50;49.00;7.70;60.40;;;;;;5074477;28;9442;-62
2021/12/18 11:57:35;;;;;;;;;50.75;43.50;7.40;62.50;;;;;;5073668;28;8780;-62
2021/12/18 12:00:03;;;;;;;;;55.25;47.50;7.30;63.90;;;;;;5065989;28;8748;-64
2021/12/18 12:02:50;;;;;;;;;59.50;51.00;7.20;65.00;;;;;;5064307;28;8793;-64
2021/12/18 12:05:18;;;;;;;;;58.50;49.50;7.10;65.70;;;;;;5059431;28;8780;-64
2021/12/18 12:07:45;;;;;;;;;61.00;52.75;7.40;65.00;;;;;;5069311;28;8875;-64
2021/12/18 12:11:04;;;;;;;;;50.75;44.75;7.50;65.20;;;;;;5063017;28;8781;-65
2021/12/18 12:13:05;;;;;;;;;57.75;50.25;7.30;65.80;;;;;;5058870;28;9008;-64
2021/12/18 12:15:31;;;;;;;;;54.75;46.00;7.10;66.50;;;;;;5070505;28;8910;-64
2021/12/18 12:18:09;;;;;;;;;60.50;52.25;7.20;66.70;;;;;;5065723;28;8865;-64
2021/12/18 12:20:46;;;;;;;;;61.25;52.00;7.10;66.70;;;;;;5071684;28;8796;-66
2021/12/18 12:23:13;;;;;;;;;52.50;45.75;7.20;66.30;;;;;;5068706;28;8780;-64
2021/12/18 12:25:51;;;;;;;;;63.25;53.25;7.10;66.10;;;;;;5072297;28;8769;-64
2021/12/18 12:28:20;;;;;;;;;55.50;48.00;7.30;66.60;;;;;;5074795;28;8869;-64
2021/12/18 12:31:01;;;;;;;;;58.75;50.00;7.20;66.00;;;;;;5075078;28;8857;-64
2021/12/18 12:33:33;;;;;;;;;67.75;57.00;7.10;67.10;;;;;;5074963;28;8787;-64
2021/12/18 12:36:06;;;;;;;;;64.25;54.00;7.20;66.60;;;;;;5075784;28;8812;-66
2021/12/18 12:38:52;;;;;;;;;66.50;56.50;7.40;65.80;;;;;;5073992;28;8745;-65
2021/12/18 12:41:32;;;;;;;;;71.25;59.00;7.70;65.50;;;;;;5074829;28;9576;-65
2021/12/18 12:44:21;;;;;;;;;66.00;54.00;7.70;65.20;;;;;;5074924;28;8753;-66
2021/12/18 12:46:47;;;;;;;;;70.00;57.50;8.40;63.60;;;;;;5075980;28;8765;-65
2021/12/18 12:49:19;;;;;;;;;67.00;55.50;8.50;62.00;;;;;;5072330;28;8804;-65
2021/12/18 12:51:58;;;;;;;;;65.25;53.50;8.80;61.80;;;;;;5074681;28;8848;-66
2021/12/18 12:54:51;;;;;;;;;63.00;49.75;8.80;61.60;;;;;;5073152;28;8764;-66
2021/12/18 12:57:27;;;;;;;;;73.25;60.00;8.40;63.40;;;;;;5069652;28;8800;-66
2021/12/18 12:59:58;;;;;;;;;64.00;54.25;7.90;64.80;;;;;;5070531;28;8837;-63
2021/12/18 13:02:26;;;;;;;;;71.50;58.75;8.00;65.40;;;;;;5075236;28;8846;-66
2021/12/18 13:05:07;;;;;;;;;72.00;59.00;7.90;65.20;;;;;;5076265;28;8885;-66
2021/12/18 13:07:34;;;;;;;;;67.50;56.00;8.10;65.00;;;;;;5077124;28;8792;-65
2021/12/18 13:10:01;;;;;;;;;77.75;63.50;8.40;63.70;;;;;;5077395;28;8806;-66
2021/12/18 13:12:27;;;;;;;;;73.00;60.25;8.40;64.00;;;;;;5077141;28;8879;-66
2021/12/18 13:14:52;;;;;;;;;69.50;57.50;8.60;63.60;;;;;;5077146;28;8791;-66
2021/12/18 13:17:20;;;;;;;;;69.25;57.50;8.50;63.50;;;;;;5071533;28;8814;-66
2021/12/18 13:20:12;;;;;;;;;71.75;59.50;8.50;63.80;;;;;;5065063;28;8814;-66
2021/12/18 13:22:38;;;;;;;;;69.50;57.75;8.70;63.80;;;;;;5070752;28;8773;-64
2021/12/18 13:25:10;;;;;;;;;73.75;61.25;8.80;62.90;;;;;;5077453;28;8780;-64
2021/12/18 13:27:39;;;;;;;;;74.25;61.75;9.20;62.30;;;;;;5071688;28;8813;-65
2021/12/18 13:30:20;;;;;;;;;67.50;56.00;9.10;62.10;;;;;;5064871;28;8835;-65
2021/12/18 13:32:57;;;;;;;;;75.50;61.50;9.10;63.10;;;;;;5066349;28;8808;-66
2021/12/18 13:35:25;;;;;;;;;77.25;63.00;9.10;62.40;;;;;;5071834;28;8804;-66
2021/12/18 13:37:56;;;;;;;;;71.00;59.00;8.80;63.10;;;;;;5073263;28;8745;-65
2021/12/18 13:40:22;;;;;;;;;77.75;63.75;8.40;64.60;;;;;;5073506;28;8795;-65
2021/12/18 13:42:47;;;;;;;;;73.50;61.75;8.50;64.90;;;;;;5071312;28;8782;-65
2021/12/18 13:45:13;;;;;;;;;74.25;61.00;8.50;65.20;;;;;;5075458;28;8815;-65
2021/12/18 13:47:47;;;;;;;;;71.25;59.75;8.70;64.70;;;;;;5070691;28;9531;-66
2021/12/18 13:50:19;;;;;;;;;77.00;63.00;8.50;65.10;;;;;;5074145;28;9446;-67
2021/12/18 13:52:57;;;;;;;;;71.75;58.50;8.40;65.70;;;;;;5065981;28;8787;-66
2021/12/18 13:55:32;;;;;;;;;68.75;57.50;8.10;66.80;;;;;;5064429;28;8803;-67